Airfield :
LOGIN :

Register | Disclaimer

   EN    FR    IT 

 










Legend :    VFR   Marginal VFR   IFR   Intensive IFR   Very Intensive IFR
Visi :
Ceiling :
>= 8 km
>= 3000ft
5 to 8 km
1000 to 3000 ft
1500m to 5 km
500 to 1000 ft
800 to 1500m
200 to 500 ft
< 800m
< 200 ft
Symbols :   Thunderstorms  Fog  Heavy snow  Heavy precipitations  Wind > 20 kt
SIGMETs :     Misc.  Thunderstorms  Icing  Turbulence  Mountain Waves  Volcanic Ashes






- Airport Elevation : 226 ft
- IATA code : BEX


EGUB - RAF Benson

CURRENT METAR :
  • 271750Z AUTO 19004KT 8000 BR BKN049/// SCT095/// 10/10 Q1009

EXPIRED METARs :
  • 271720Z AUTO 15003KT 9000 BR OVC099/// 10/10 Q1009
  • 271650Z AUTO 15003KT 9000 BR FEW048/// OVC100/// 10/09 Q1009
  • 271620Z AUTO 17005KT 9999 BR FEW048/// OVC100/// 10/09 Q1010
  • 271550Z AUTO 17003KT 7000 BR SCT043/// 10/09 Q1010
  • 271520Z AUTO 16004KT 9999 BKN130/// 11/10 Q1010

Expired Forecast.
ATIS : +44 1491-837766 (x7524)



MET'MAP, your aeronautical weather chart ! - Copyright ORBIFLY December 2007 - Disclaimer

ORBIFLY MET'MAP TEAM :

Programming & Development : Alexandra Zaïnal
Original concept : Baudouin d'Aumeries
Technical & hardware support : Manuel Goepfert
Assistance : Marc-Olivier Méhu




SOURCES & CREDITS :

   NOAA